createdAt,value
2022-09-14T00:02:13.824Z,5.63
2022-09-14T00:07:15.447Z,5.63
2022-09-14T00:12:17.188Z,6.47
2022-09-14T00:17:18.853Z,7.27
2022-09-14T00:22:20.342Z,5.77
2022-09-14T00:27:21.810Z,5.63
2022-09-14T00:32:23.403Z,7.60
2022-09-14T00:37:25.170Z,8.17
2022-09-14T00:42:26.639Z,6.13
2022-09-14T00:47:29.853Z,5.30
2022-09-14T00:52:33.865Z,7.67
2022-09-14T00:57:47.200Z,7.30
2022-09-14T01:02:49.268Z,11.30
2022-09-14T01:08:01.613Z,9.80
2022-09-14T01:13:12.459Z,8.00
2022-09-14T01:18:24.744Z,9.07
2022-09-14T01:23:34.643Z,9.53
2022-09-14T01:28:58.364Z,9.83
2022-09-14T01:34:10.830Z,7.43
2022-09-14T01:39:13.174Z,8.87
2022-09-14T01:44:19.841Z,10.17
2022-09-14T01:49:32.836Z,11.30
2022-09-14T01:54:42.371Z,10.83
2022-09-14T01:59:46.161Z,12.53
2022-09-14T02:04:47.579Z,11.57
2022-09-14T02:09:50.327Z,11.73
2022-09-14T02:14:52.966Z,13.30
2022-09-14T02:19:59.911Z,16.07
2022-09-14T02:25:02.067Z,12.23
2022-09-14T02:30:04.199Z,12.87
2022-09-14T02:35:15.439Z,14.73
2022-09-14T02:40:26.818Z,12.13
2022-09-14T02:45:43.973Z,10.13
2022-09-14T02:50:51.596Z,14.27
2022-09-14T02:56:00.403Z,12.07
2022-09-14T03:01:02.045Z,17.27
2022-09-14T03:06:04.603Z,15.27
2022-09-14T03:11:06.513Z,16.43
2022-09-14T03:16:10.707Z,14.27
2022-09-14T03:21:14.959Z,15.37
2022-09-14T03:26:18.879Z,18.20
2022-09-14T03:31:21.052Z,14.77
2022-09-14T03:36:23.675Z,13.37
2022-09-14T03:41:25.429Z,13.53
2022-09-14T03:46:27.519Z,18.13
2022-09-14T03:51:29.269Z,12.43
2022-09-14T03:56:31.017Z,11.13
2022-09-14T04:01:33.187Z,12.27
2022-09-14T04:06:34.849Z,14.13
2022-09-14T04:11:36.466Z,11.93
2022-09-14T04:16:38.977Z,15.57
2022-09-14T04:21:40.573Z,12.90
2022-09-14T04:26:43.419Z,15.07
2022-09-14T04:31:45.193Z,13.67
2022-09-14T04:36:46.868Z,11.87
2022-09-14T04:41:48.586Z,10.53
2022-09-14T04:46:50.198Z,12.57
2022-09-14T04:51:51.899Z,10.50
2022-09-14T04:56:53.465Z,14.30
2022-09-14T05:01:55.022Z,12.53
2022-09-14T05:06:56.549Z,13.17
2022-09-14T05:11:58.178Z,14.47
2022-09-14T05:17:01.326Z,14.47
2022-09-14T05:22:02.887Z,13.83
2022-09-14T05:27:04.444Z,14.80
2022-09-14T05:32:06.729Z,12.43
2022-09-14T05:37:08.326Z,13.63
2022-09-14T05:42:09.750Z,11.03
2022-09-14T05:47:11.364Z,12.83
2022-09-14T05:52:12.941Z,12.33
2022-09-14T05:57:14.422Z,9.07
2022-09-14T06:02:18.166Z,12.60
2022-09-14T06:07:19.959Z,11.10
2022-09-14T06:12:21.541Z,10.37
2022-09-14T06:17:23.053Z,12.20
2022-09-14T06:22:24.512Z,12.57
2022-09-14T06:27:27.360Z,9.67
2022-09-14T06:32:30.639Z,12.10
2022-09-14T06:37:32.176Z,9.13
2022-09-14T06:42:33.787Z,12.33
2022-09-14T06:47:35.576Z,10.73
2022-09-14T06:52:37.623Z,10.63
2022-09-14T06:57:42.861Z,9.57
2022-09-14T07:02:44.965Z,11.30
2022-09-14T07:07:46.777Z,9.97
2022-09-14T07:12:48.737Z,9.93
2022-09-14T07:17:50.397Z,9.70
2022-09-14T07:22:52.060Z,11.53
2022-09-14T07:27:53.661Z,11.97
2022-09-14T07:32:55.264Z,12.40
2022-09-14T07:37:56.761Z,13.37
2022-09-14T07:42:58.423Z,9.80
2022-09-14T07:48:00.886Z,10.93
2022-09-14T07:53:02.551Z,11.00
2022-09-14T07:58:04.182Z,13.10
2022-09-14T08:03:06.127Z,11.10
2022-09-14T08:08:07.688Z,10.33
2022-09-14T08:13:09.221Z,9.50
2022-09-14T08:18:11.303Z,10.20
2022-09-14T08:23:13.088Z,9.27
2022-09-14T08:28:14.583Z,8.03
2022-09-14T08:33:16.210Z,7.80
2022-09-14T08:38:17.958Z,6.77
2022-09-14T08:43:21.729Z,7.60
2022-09-14T08:48:31.540Z,7.33
2022-09-14T08:53:36.647Z,6.77
2022-09-14T08:59:06.226Z,5.60
2022-09-14T09:04:29.391Z,4.37
2022-09-14T09:09:44.735Z,5.10
2022-09-14T09:14:50.881Z,5.57
2022-09-14T09:20:11.830Z,3.97
2022-09-14T09:25:29.842Z,3.63
2022-09-14T09:30:31.853Z,2.87
2022-09-14T09:35:33.703Z,2.30
2022-09-14T09:41:12.262Z,2.97
2022-09-14T09:46:14.626Z,2.70
2022-09-14T09:51:26.680Z,4.57
2022-09-14T09:56:32.390Z,5.13
2022-09-14T10:01:35.620Z,5.40
2022-09-14T10:06:45.955Z,4.53
2022-09-14T10:11:48.959Z,4.53
2022-09-14T10:16:50.810Z,6.17
2022-09-14T10:22:17.683Z,6.20
2022-09-14T10:27:37.780Z,7.60
2022-09-14T10:32:43.091Z,7.37
2022-09-14T10:38:07.861Z,7.70
2022-09-14T10:43:16.030Z,8.70
2022-09-14T10:48:35.711Z,8.23
2022-09-14T10:53:49.724Z,8.50
2022-09-14T10:59:19.270Z,8.23
2022-09-14T11:04:58.446Z,8.83
2022-09-14T11:10:21.266Z,8.53
2022-09-14T11:15:37.811Z,7.93
2022-09-14T11:20:58.773Z,8.53
2022-09-14T11:26:03.768Z,8.37
2022-09-14T11:31:25.406Z,9.17
2022-09-14T11:36:41.402Z,10.20
2022-09-14T11:41:49.755Z,8.73
2022-09-14T11:47:02.408Z,7.93
2022-09-14T11:52:13.448Z,8.27
2022-09-14T11:57:18.870Z,9.10
2022-09-14T12:02:23.477Z,10.20
2022-09-14T12:07:43.500Z,8.53
2022-09-14T12:12:46.626Z,8.63
2022-09-14T12:17:48.672Z,8.77
2022-09-14T12:22:50.592Z,7.00
2022-09-14T12:27:52.439Z,7.20
2022-09-14T12:32:54.099Z,6.83
2022-09-14T12:37:55.597Z,6.77
2022-09-14T12:42:57.298Z,7.40
2022-09-14T12:47:58.782Z,6.17
2022-09-14T12:53:13.741Z,6.97
2022-09-14T12:58:34.793Z,7.13
2022-09-14T13:03:47.094Z,6.87
2022-09-14T13:08:52.943Z,5.63
2022-09-14T13:13:55.667Z,5.63
2022-09-14T13:19:02.834Z,6.07
2022-09-14T13:24:19.837Z,6.43
2022-09-14T13:29:21.508Z,6.77
2022-09-14T13:34:28.451Z,6.20
2022-09-14T13:39:38.156Z,5.47
2022-09-14T13:44:49.764Z,5.93
2022-09-14T13:49:53.380Z,5.33
2022-09-14T13:55:16.847Z,5.50
2022-09-14T14:00:21.146Z,4.83
2022-09-14T14:05:27.297Z,5.63
2022-09-14T14:10:38.468Z,6.00
2022-09-14T14:15:42.466Z,5.50
2022-09-14T14:20:44.222Z,8.70
2022-09-14T14:25:48.942Z,7.27
2022-09-14T14:30:51.198Z,7.63
2022-09-14T14:35:54.596Z,8.53
2022-09-14T14:40:58.407Z,10.07
2022-09-14T14:46:01.032Z,8.20
2022-09-14T14:51:03.016Z,8.47
2022-09-14T14:56:04.606Z,8.57
2022-09-14T15:01:06.384Z,8.63
2022-09-14T15:06:14.316Z,11.40
2022-09-14T15:11:17.821Z,13.43
2022-09-14T15:16:19.504Z,15.50
2022-09-14T15:21:21.170Z,14.43
2022-09-14T15:26:23.150Z,16.30
2022-09-14T15:31:24.832Z,14.87
2022-09-14T15:36:53.110Z,16.13
2022-09-14T15:41:55.405Z,12.30
2022-09-14T15:46:57.427Z,13.67
2022-09-14T15:51:59.019Z,12.37
2022-09-14T15:57:00.878Z,13.40
2022-09-14T16:02:02.594Z,13.63
2022-09-14T16:07:05.373Z,13.60
2022-09-14T16:12:08.604Z,11.13
2022-09-14T16:17:11.355Z,10.00
2022-09-14T16:22:12.873Z,9.60
2022-09-14T16:27:14.577Z,7.30
2022-09-14T16:32:16.167Z,5.50
2022-09-14T16:37:17.682Z,5.00
2022-09-14T16:42:20.111Z,4.70
2022-09-14T16:47:21.690Z,5.43
2022-09-14T16:52:23.375Z,5.63
2022-09-14T16:57:26.840Z,7.20
2022-09-14T17:02:28.746Z,8.27
2022-09-14T17:07:30.262Z,8.20
2022-09-14T17:12:31.748Z,8.70
2022-09-14T17:17:33.405Z,9.10
2022-09-14T17:22:34.998Z,10.50
2022-09-14T17:27:36.578Z,10.60
2022-09-14T17:32:38.091Z,11.37
2022-09-14T17:37:39.554Z,16.23
2022-09-14T17:42:42.536Z,13.77
2022-09-14T17:47:44.617Z,11.03
2022-09-14T17:52:46.457Z,13.60
2022-09-14T17:57:47.972Z,17.67
2022-09-14T18:02:53.125Z,17.30
2022-09-14T18:07:54.970Z,16.83
2022-09-14T18:12:56.450Z,15.93
2022-09-14T18:17:57.992Z,16.37
2022-09-14T18:22:59.564Z,16.90
2022-09-14T18:28:01.294Z,17.93
2022-09-14T18:33:02.965Z,20.20
2022-09-14T18:38:06.676Z,20.70
2022-09-14T18:43:08.384Z,18.47
2022-09-14T18:48:09.986Z,21.30
2022-09-14T18:53:11.677Z,18.33
2022-09-14T18:58:13.164Z,21.57
2022-09-14T19:03:14.663Z,19.30
2022-09-14T19:08:16.172Z,22.20
2022-09-14T19:13:17.668Z,18.83
2022-09-14T19:18:19.190Z,23.53
2022-09-14T19:23:20.701Z,16.33
2022-09-14T19:28:22.349Z,18.83
2022-09-14T19:33:24.205Z,16.80
2022-09-14T19:38:25.798Z,15.20
2022-09-14T19:43:27.790Z,17.23
2022-09-14T19:48:29.258Z,18.83
2022-09-14T19:53:32.357Z,20.00
2022-09-14T19:58:44.628Z,16.43
2022-09-14T20:03:46.723Z,16.23
2022-09-14T20:09:27.549Z,19.83
2022-09-14T20:14:29.045Z,21.47
2022-09-14T20:19:32.431Z,21.87
2022-09-14T20:24:35.758Z,18.67
2022-09-14T20:29:37.345Z,21.63
2022-09-14T20:34:38.902Z,23.53
2022-09-14T20:39:41.040Z,19.47
2022-09-14T20:44:42.635Z,25.17
2022-09-14T20:49:44.817Z,27.27
2022-09-14T20:54:46.596Z,21.37
2022-09-14T20:59:48.086Z,18.87
2022-09-14T21:04:49.611Z,21.03
2022-09-14T21:09:51.182Z,19.83
2022-09-14T21:14:52.748Z,18.23
2022-09-14T21:19:54.306Z,20.23
2022-09-14T21:24:55.776Z,17.53
2022-09-14T21:29:57.319Z,19.87
2022-09-14T21:34:59.003Z,20.03
2022-09-14T21:40:00.653Z,18.40
2022-09-14T21:45:02.317Z,24.53
2022-09-14T21:50:05.162Z,21.33
2022-09-14T21:55:07.259Z,22.80
2022-09-14T22:00:10.525Z,27.10
2022-09-14T22:05:12.754Z,27.93
2022-09-14T22:10:14.666Z,31.63
2022-09-14T22:15:16.313Z,27.30
2022-09-14T22:20:18.100Z,26.90
2022-09-14T22:25:21.230Z,27.97
2022-09-14T22:30:23.005Z,34.07
2022-09-14T22:35:25.214Z,27.43
2022-09-14T22:40:27.300Z,28.67
2022-09-14T22:45:30.320Z,30.20
2022-09-14T22:50:31.840Z,29.80
2022-09-14T22:55:39.737Z,24.90
2022-09-14T23:00:41.863Z,30.17
2022-09-14T23:05:56.205Z,37.10
2022-09-14T23:10:57.833Z,31.70
2022-09-14T23:16:01.150Z,35.43
2022-09-14T23:21:03.745Z,38.60
2022-09-14T23:26:09.173Z,36.67
2022-09-14T23:31:10.994Z,39.43
2022-09-14T23:36:12.861Z,37.77
2022-09-14T23:41:15.716Z,39.50
2022-09-14T23:46:17.901Z,39.23
2022-09-14T23:51:19.691Z,48.03
2022-09-14T23:56:21.343Z,39.60
